createdAt,value
2022-08-21T00:00:58.875Z,7.37
2022-08-21T00:04:04.480Z,7.00
2022-08-21T00:07:12.639Z,8.25
2022-08-21T00:10:18.288Z,7.12
2022-08-21T00:13:24.471Z,8.13
2022-08-21T00:16:30.771Z,7.37
2022-08-21T00:19:36.999Z,6.83
2022-08-21T00:22:43.175Z,6.80
2022-08-21T00:25:48.437Z,6.28
2022-08-21T00:28:54.382Z,7.83
2022-08-21T00:32:01.057Z,7.37
2022-08-21T00:35:07.839Z,7.08
2022-08-21T00:38:13.454Z,6.87
2022-08-21T00:41:37.082Z,6.80
2022-08-21T00:44:29.055Z,7.33
2022-08-21T00:47:34.559Z,6.58
2022-08-21T00:50:43.048Z,6.58
2022-08-21T00:53:51.707Z,6.45
2022-08-21T00:56:55.531Z,6.75
2022-08-21T01:00:05.265Z,6.45
2022-08-21T01:03:13.185Z,9.10
2022-08-21T01:06:19.690Z,6.08
2022-08-21T01:09:27.195Z,8.98
2022-08-21T01:12:33.986Z,6.40
2022-08-21T01:15:43.141Z,6.83
2022-08-21T01:18:49.568Z,6.67
2022-08-21T01:21:55.373Z,7.17
2022-08-21T01:25:00.901Z,6.62
2022-08-21T01:28:07.219Z,6.37
2022-08-21T01:31:13.770Z,7.53
2022-08-21T01:34:20.446Z,5.90
2022-08-21T01:37:20.910Z,6.83
2022-08-21T01:40:27.081Z,7.13
2022-08-21T01:43:35.625Z,8.38
2022-08-21T01:46:41.389Z,7.05
2022-08-21T01:49:47.573Z,5.92
2022-08-21T01:52:53.292Z,6.62
2022-08-21T01:56:00.039Z,6.03
2022-08-21T01:59:06.364Z,6.15
2022-08-21T02:02:11.605Z,7.45
2022-08-21T02:05:17.163Z,6.92
2022-08-21T02:08:22.588Z,7.78
2022-08-21T02:11:28.771Z,7.65
2022-08-21T02:14:34.562Z,7.08
2022-08-21T02:17:39.563Z,6.65
2022-08-21T02:20:55.815Z,7.15
2022-08-21T02:24:00.928Z,6.45
2022-08-21T02:27:07.576Z,5.80
2022-08-21T02:30:14.126Z,6.42
2022-08-21T02:33:20.976Z,7.40
2022-08-21T02:36:27.822Z,6.92
2022-08-21T02:39:33.390Z,5.92
2022-08-21T02:42:39.318Z,6.55
2022-08-21T02:45:45.350Z,7.40
2022-08-21T02:48:51.324Z,6.90
2022-08-21T02:51:57.759Z,5.90
2022-08-21T02:55:03.246Z,7.20
2022-08-21T02:58:08.963Z,7.00
2022-08-21T03:01:18.972Z,6.65
2022-08-21T03:04:26.313Z,6.35
2022-08-21T03:07:32.980Z,6.87
2022-08-21T03:10:39.752Z,6.90
2022-08-21T03:13:47.289Z,7.72
2022-08-21T03:16:53.127Z,6.00
2022-08-21T03:19:58.416Z,7.17
2022-08-21T03:22:57.485Z,6.72
2022-08-21T03:26:03.767Z,7.00
2022-08-21T03:29:09.247Z,7.15
2022-08-21T03:32:15.915Z,6.15
2022-08-21T03:35:22.550Z,7.35
2022-08-21T03:38:28.966Z,6.35
2022-08-21T03:41:28.777Z,7.15
2022-08-21T03:44:36.826Z,6.10
2022-08-21T03:47:43.517Z,5.47
2022-08-21T03:50:54.538Z,4.83
2022-08-21T03:54:00.181Z,5.70
2022-08-21T03:57:06.548Z,6.55
2022-08-21T04:00:13.048Z,6.33
2022-08-21T04:03:19.781Z,6.58
2022-08-21T04:06:19.316Z,6.40
2022-08-21T04:09:11.785Z,6.05
2022-08-21T04:12:17.269Z,7.20
2022-08-21T04:15:22.666Z,6.10
2022-08-21T04:18:28.683Z,5.75
2022-08-21T04:21:35.264Z,7.03
2022-08-21T04:24:41.269Z,5.97
2022-08-21T04:27:47.748Z,7.05
2022-08-21T04:30:53.343Z,5.83
2022-08-21T04:33:59.070Z,6.03
2022-08-21T04:37:06.856Z,6.50
2022-08-21T04:40:12.825Z,6.25
2022-08-21T04:43:21.221Z,7.40
2022-08-21T04:46:26.583Z,6.92
2022-08-21T04:49:25.800Z,7.87
2022-08-21T04:52:24.429Z,7.58
2022-08-21T04:55:31.483Z,8.03
2022-08-21T04:58:37.087Z,7.83
2022-08-21T05:01:43.839Z,7.83
2022-08-21T05:04:49.388Z,6.70
2022-08-21T05:07:57.045Z,8.18
2022-08-21T05:11:03.869Z,7.62
2022-08-21T05:14:10.517Z,6.90
2022-08-21T05:17:16.210Z,7.35
2022-08-21T05:20:24.570Z,7.03
2022-08-21T05:23:29.328Z,6.42
2022-08-21T05:26:34.144Z,8.25
2022-08-21T05:29:42.851Z,6.12
2022-08-21T05:32:48.056Z,7.85
2022-08-21T05:35:54.689Z,8.08
2022-08-21T05:39:00.813Z,8.40
2022-08-21T05:42:06.173Z,6.45
2022-08-21T05:45:11.296Z,9.40
2022-08-21T05:48:28.874Z,8.50
2022-08-21T05:51:34.736Z,6.10
2022-08-21T05:54:41.105Z,8.25
2022-08-21T05:57:48.721Z,7.58
2022-08-21T06:00:56.245Z,7.47
2022-08-21T06:04:01.502Z,6.90
2022-08-21T06:07:08.970Z,7.70
2022-08-21T06:10:15.251Z,9.58
2022-08-21T06:13:22.356Z,7.65
2022-08-21T06:16:30.553Z,7.25
2022-08-21T06:19:36.762Z,7.97
2022-08-21T06:22:42.632Z,7.22
2022-08-21T06:25:48.343Z,8.23
2022-08-21T06:28:53.984Z,7.50
2022-08-21T06:32:00.499Z,7.72
2022-08-21T06:35:06.158Z,10.03
2022-08-21T06:38:12.797Z,8.90
2022-08-21T06:41:17.158Z,10.23
2022-08-21T06:44:22.539Z,9.30
2022-08-21T06:47:22.550Z,10.00
2022-08-21T06:50:16.196Z,11.83
2022-08-21T06:53:23.774Z,12.55
2022-08-21T06:56:28.580Z,12.03
2022-08-21T06:59:35.606Z,11.85
2022-08-21T07:02:42.680Z,13.13
2022-08-21T07:05:42.303Z,13.48
2022-08-21T07:08:49.323Z,12.30
2022-08-21T07:11:56.158Z,15.65
2022-08-21T07:15:01.425Z,16.60
2022-08-21T07:18:01.048Z,19.30
2022-08-21T07:21:06.917Z,17.50
2022-08-21T07:24:12.578Z,16.65
2022-08-21T07:27:18.586Z,19.35
2022-08-21T07:30:25.148Z,19.02
2022-08-21T07:33:30.888Z,16.95
2022-08-21T07:36:37.892Z,17.42
2022-08-21T07:39:45.859Z,16.93
2022-08-21T07:42:59.565Z,16.65
2022-08-21T07:46:05.264Z,19.57
2022-08-21T07:49:13.093Z,17.20
2022-08-21T07:52:18.429Z,20.70
2022-08-21T07:55:29.604Z,19.07
2022-08-21T07:58:36.225Z,19.25
2022-08-21T08:01:41.753Z,18.23
2022-08-21T08:04:50.635Z,18.42
2022-08-21T08:07:55.969Z,16.93
2022-08-21T08:11:02.903Z,17.85
2022-08-21T08:14:10.891Z,18.80
2022-08-21T08:17:17.686Z,18.35
2022-08-21T08:20:24.055Z,18.85
2022-08-21T08:23:30.516Z,16.82
2022-08-21T08:26:35.824Z,20.82
2022-08-21T08:29:40.990Z,19.10
2022-08-21T08:32:47.323Z,15.95
2022-08-21T08:35:54.167Z,17.17
2022-08-21T08:38:59.877Z,17.40
2022-08-21T08:42:32.150Z,18.95
2022-08-21T08:45:27.683Z,13.18
2022-08-21T08:48:52.802Z,15.05
2022-08-21T08:52:03.388Z,15.88
2022-08-21T08:55:34.042Z,15.58
2022-08-21T08:58:41.708Z,16.55
2022-08-21T09:01:28.017Z,15.60
2022-08-21T09:04:21.916Z,15.08
2022-08-21T09:07:51.783Z,16.05
2022-08-21T09:11:05.533Z,14.65
2022-08-21T09:14:41.271Z,15.15
2022-08-21T09:18:12.250Z,14.03
2022-08-21T09:21:22.075Z,14.13
2022-08-21T09:25:16.406Z,14.93
2022-08-21T09:28:27.109Z,13.70
2022-08-21T09:31:42.574Z,15.45
2022-08-21T09:34:48.447Z,13.43
2022-08-21T09:38:12.972Z,12.80
2022-08-21T09:41:25.883Z,14.10
2022-08-21T09:44:34.628Z,15.20
2022-08-21T09:47:42.888Z,13.77
2022-08-21T09:50:48.459Z,11.45
2022-08-21T09:53:57.878Z,8.78
2022-08-21T09:57:25.040Z,11.43
2022-08-21T10:00:36.726Z,12.55
2022-08-21T10:03:42.169Z,9.08
2022-08-21T10:06:48.228Z,10.95
2022-08-21T10:09:53.439Z,10.70
2022-08-21T10:13:18.166Z,9.80
2022-08-21T10:16:44.219Z,12.37
2022-08-21T10:20:16.363Z,11.00
2022-08-21T10:23:53.579Z,9.63
2022-08-21T10:27:10.025Z,8.85
2022-08-21T10:30:26.684Z,10.40
2022-08-21T10:33:47.224Z,10.88
2022-08-21T10:37:24.712Z,8.38
2022-08-21T10:40:45.330Z,8.05
2022-08-21T10:44:29.007Z,10.60
2022-08-21T10:47:58.197Z,9.48
2022-08-21T10:51:11.392Z,9.38
2022-08-21T10:54:30.234Z,9.00
2022-08-21T10:57:55.768Z,7.80
2022-08-21T11:01:08.606Z,8.65
2022-08-21T11:04:39.680Z,9.80
2022-08-21T11:07:53.891Z,8.88
2022-08-21T11:11:16.120Z,7.05
2022-08-21T11:14:55.760Z,7.20
2022-08-21T11:21:46.691Z,7.03
2022-08-21T11:25:36.526Z,7.10
2022-08-21T11:28:48.809Z,7.10
2022-08-21T11:32:22.518Z,7.42
2022-08-21T11:35:44.538Z,8.03
2022-08-21T11:39:00.024Z,8.28
2022-08-21T11:42:53.224Z,5.53
2022-08-21T11:46:06.478Z,6.55
2022-08-21T11:49:23.855Z,7.92
2022-08-21T11:52:39.528Z,6.50
2022-08-21T11:56:12.087Z,6.20
2022-08-21T11:59:22.561Z,6.83
2022-08-21T12:02:32.578Z,6.75
2022-08-21T12:05:47.474Z,8.15
2022-08-21T12:09:01.257Z,6.17
2022-08-21T12:12:22.947Z,5.72
2022-08-21T12:15:37.256Z,6.10
2022-08-21T12:18:46.091Z,5.15
2022-08-21T12:22:22.753Z,5.30
2022-08-21T12:25:32.158Z,5.65
2022-08-21T12:28:39.149Z,6.47
2022-08-21T12:31:43.952Z,6.62
2022-08-21T12:35:15.552Z,5.85
2022-08-21T12:38:27.004Z,5.85
2022-08-21T12:41:39.309Z,5.30
2022-08-21T12:44:54.681Z,6.10
2022-08-21T12:48:06.292Z,6.08
2022-08-21T12:51:29.148Z,6.40
2022-08-21T12:54:46.698Z,4.95
2022-08-21T12:57:54.273Z,5.90
2022-08-21T13:01:07.861Z,5.50
2022-08-21T13:04:23.378Z,5.78
2022-08-21T13:07:32.634Z,6.17
2022-08-21T13:10:43.414Z,5.90
2022-08-21T13:13:51.104Z,6.53
2022-08-21T13:16:56.231Z,6.25
2022-08-21T13:20:16.453Z,5.90
2022-08-21T13:23:41.151Z,7.67
2022-08-21T13:26:46.561Z,5.30
2022-08-21T13:29:54.346Z,6.55
2022-08-21T13:33:01.719Z,5.58
2022-08-21T13:36:19.984Z,6.15
2022-08-21T13:39:28.384Z,5.17
2022-08-21T13:42:33.897Z,5.25
2022-08-21T13:45:47.716Z,5.15
2022-08-21T13:48:54.098Z,5.35
2022-08-21T13:52:00.310Z,4.60
2022-08-21T13:55:14.806Z,4.47
2022-08-21T13:58:21.369Z,5.97
2022-08-21T14:01:40.733Z,4.45
2022-08-21T14:07:59.207Z,4.95
2022-08-21T14:11:05.791Z,6.05
2022-08-21T14:14:16.735Z,5.05
2022-08-21T14:17:29.053Z,4.83
2022-08-21T14:20:49.623Z,4.40
2022-08-21T14:23:55.185Z,4.42
2022-08-21T14:27:07.555Z,5.17
2022-08-21T14:30:20.609Z,4.28
2022-08-21T14:33:25.087Z,5.47
2022-08-21T14:36:17.843Z,5.30
2022-08-21T14:39:24.395Z,4.70
2022-08-21T14:42:31.650Z,5.42
2022-08-21T14:45:45.087Z,4.78
2022-08-21T14:48:51.823Z,4.78
2022-08-21T14:51:54.271Z,5.33
2022-08-21T14:55:00.685Z,5.65
2022-08-21T14:58:07.855Z,5.42
2022-08-21T15:01:13.159Z,4.97
2022-08-21T15:04:18.934Z,5.53
2022-08-21T15:07:25.672Z,5.58
2022-08-21T15:10:32.658Z,4.30
2022-08-21T15:13:38.610Z,3.85
2022-08-21T15:16:45.170Z,3.72
2022-08-21T15:19:50.851Z,3.77
2022-08-21T15:22:56.848Z,4.72
2022-08-21T15:26:05.566Z,3.27
2022-08-21T15:29:11.733Z,3.50
2022-08-21T15:32:38.114Z,4.15
2022-08-21T15:35:44.237Z,3.67
2022-08-21T15:38:51.781Z,3.58
2022-08-21T15:41:58.057Z,3.95
2022-08-21T15:45:03.861Z,4.37
2022-08-21T15:48:09.734Z,3.75
2022-08-21T15:51:15.612Z,4.20
2022-08-21T15:54:20.980Z,4.50
2022-08-21T15:57:31.769Z,3.95
2022-08-21T16:00:38.575Z,3.90
2022-08-21T16:03:44.419Z,4.45
2022-08-21T16:06:54.375Z,4.12
2022-08-21T16:09:52.184Z,4.30
2022-08-21T16:13:07.369Z,4.50
2022-08-21T16:16:13.841Z,3.98
2022-08-21T16:19:13.100Z,4.25
2022-08-21T16:22:19.505Z,3.92
2022-08-21T16:25:26.154Z,4.00
2022-08-21T16:28:35.927Z,3.98
2022-08-21T16:31:42.978Z,4.42
2022-08-21T16:34:49.223Z,4.10
2022-08-21T16:37:55.679Z,3.98
2022-08-21T16:41:02.263Z,5.28
2022-08-21T16:44:09.780Z,4.67
2022-08-21T16:47:27.281Z,4.58
2022-08-21T16:50:27.630Z,4.42
2022-08-21T16:53:33.164Z,3.62
2022-08-21T16:56:40.052Z,4.40
2022-08-21T16:59:45.286Z,4.03
2022-08-21T17:02:59.454Z,5.35
2022-08-21T17:06:05.757Z,4.55
2022-08-21T17:09:13.570Z,5.62
2022-08-21T17:12:20.158Z,5.50
2022-08-21T17:15:34.998Z,4.80
2022-08-21T17:18:39.654Z,4.92
2022-08-21T17:21:45.831Z,4.58
2022-08-21T17:24:54.395Z,5.15
2022-08-21T17:27:59.953Z,4.47
2022-08-21T17:31:10.382Z,4.87
2022-08-21T17:34:10.378Z,5.03
2022-08-21T17:37:08.699Z,4.28
2022-08-21T17:40:14.466Z,5.33
2022-08-21T17:43:22.934Z,4.87
2022-08-21T17:46:33.965Z,4.22
2022-08-21T17:49:40.356Z,5.20
2022-08-21T17:52:38.477Z,4.65
2022-08-21T17:55:24.740Z,4.87
2022-08-21T17:58:19.712Z,4.05
2022-08-21T18:01:06.143Z,4.45
2022-08-21T18:03:58.308Z,4.03
2022-08-21T18:06:57.649Z,4.53
2022-08-21T18:10:03.079Z,4.60
2022-08-21T18:13:09.404Z,3.70
2022-08-21T18:16:21.820Z,4.65
2022-08-21T18:19:30.374Z,4.25
2022-08-21T18:22:29.192Z,3.58
2022-08-21T18:25:22.702Z,3.52
2022-08-21T18:28:27.604Z,3.67
2022-08-21T18:31:33.854Z,4.20
2022-08-21T18:34:45.746Z,3.98
2022-08-21T18:37:55.506Z,3.75
2022-08-21T18:41:10.030Z,4.20
2022-08-21T18:44:13.491Z,4.03
2022-08-21T18:47:25.432Z,3.75
2022-08-21T18:50:34.677Z,3.98
2022-08-21T18:53:40.453Z,4.37
2022-08-21T18:56:52.209Z,4.40
2022-08-21T19:00:01.902Z,3.85
2022-08-21T19:03:08.332Z,4.60
2022-08-21T19:06:13.704Z,5.87
2022-08-21T19:09:22.707Z,4.95
2022-08-21T19:12:33.361Z,5.05
2022-08-21T19:15:39.376Z,5.90
2022-08-21T19:18:44.614Z,5.35
2022-08-21T19:21:49.661Z,5.90
2022-08-21T19:24:55.215Z,5.30
2022-08-21T19:28:00.803Z,5.90
2022-08-21T19:31:16.453Z,4.75
2022-08-21T19:34:30.576Z,5.28
2022-08-21T19:37:35.886Z,5.00
2022-08-21T19:40:41.731Z,4.28
2022-08-21T19:43:48.397Z,4.05
2022-08-21T19:46:56.790Z,4.72
2022-08-21T19:50:17.299Z,3.65
2022-08-21T19:53:16.485Z,4.12
2022-08-21T19:56:26.639Z,4.05
2022-08-21T19:59:35.335Z,4.00
2022-08-21T20:02:47.944Z,4.00
2022-08-21T20:05:51.044Z,3.70
2022-08-21T20:08:59.325Z,3.47
2022-08-21T20:12:10.265Z,3.42
2022-08-21T20:15:15.519Z,3.25
2022-08-21T20:18:26.823Z,3.77
2022-08-21T20:21:28.602Z,3.15
2022-08-21T20:24:35.379Z,3.65
2022-08-21T20:27:42.369Z,3.60
2022-08-21T20:30:48.444Z,3.70
2022-08-21T20:33:54.368Z,3.60
2022-08-21T20:37:00.732Z,4.40
2022-08-21T20:40:07.878Z,4.58
2022-08-21T20:43:14.576Z,4.20
2022-08-21T20:46:21.064Z,3.58
2022-08-21T20:49:30.545Z,5.33
2022-08-21T20:52:35.848Z,4.28
2022-08-21T20:55:42.426Z,5.20
2022-08-21T20:58:55.101Z,4.55
2022-08-21T21:02:01.794Z,4.75
2022-08-21T21:05:27.707Z,4.33
2022-08-21T21:08:46.636Z,5.05
2022-08-21T21:11:56.911Z,5.87
2022-08-21T21:15:05.613Z,6.47
2022-08-21T21:18:24.994Z,6.65
2022-08-21T21:21:51.721Z,5.12
2022-08-21T21:25:39.786Z,6.55
2022-08-21T21:28:43.073Z,5.20
2022-08-21T21:31:49.530Z,7.47
2022-08-21T21:34:58.346Z,5.53
2022-08-21T21:38:27.700Z,6.80
2022-08-21T21:41:42.889Z,7.55
2022-08-21T21:45:02.625Z,5.47
2022-08-21T21:48:47.263Z,7.42
2022-08-21T21:52:12.104Z,7.75
2022-08-21T21:55:29.672Z,6.67
2022-08-21T21:59:10.617Z,6.30
2022-08-21T22:02:47.344Z,8.30
2022-08-21T22:06:21.469Z,7.87
2022-08-21T22:09:58.250Z,8.28
2022-08-21T22:13:33.464Z,8.98
2022-08-21T22:16:39.769Z,7.60
2022-08-21T22:19:53.825Z,7.42
2022-08-21T22:23:00.683Z,7.95
2022-08-21T22:26:10.860Z,9.10
2022-08-21T22:29:17.503Z,8.40
2022-08-21T22:32:24.257Z,8.70
2022-08-21T22:35:36.313Z,9.33
2022-08-21T22:38:47.834Z,7.58
2022-08-21T22:42:01.289Z,7.78
2022-08-21T22:45:12.051Z,8.10
2022-08-21T22:48:24.014Z,8.58
2022-08-21T22:51:37.126Z,9.83
2022-08-21T22:54:56.983Z,11.48
2022-08-21T22:58:04.563Z,9.75
2022-08-21T23:01:18.935Z,9.13
2022-08-21T23:04:32.218Z,10.75
2022-08-21T23:07:55.974Z,9.55
2022-08-21T23:11:02.499Z,8.58
2022-08-21T23:14:14.044Z,10.95
2022-08-21T23:17:36.495Z,10.35
2022-08-21T23:21:02.773Z,9.55
2022-08-21T23:24:46.705Z,10.65
2022-08-21T23:28:09.910Z,9.83
2022-08-21T23:31:23.338Z,9.58
2022-08-21T23:34:40.515Z,11.38
2022-08-21T23:38:09.232Z,9.83
2022-08-21T23:41:20.368Z,10.53
2022-08-21T23:44:53.048Z,11.48
2022-08-21T23:48:19.841Z,9.68
2022-08-21T23:51:35.760Z,11.05
2022-08-21T23:55:17.832Z,10.85
2022-08-21T23:58:57.637Z,10.60
